createdAt,value
2018-09-13T00:01:28.248Z,14.20
2018-09-13T00:03:56.312Z,14.20
2018-09-13T00:06:24.397Z,14.20
2018-09-13T00:08:52.421Z,14.10
2018-09-13T00:11:20.468Z,14.00
2018-09-13T00:13:48.711Z,13.90
2018-09-13T00:16:16.772Z,13.80
2018-09-13T00:18:44.824Z,13.90
2018-09-13T00:21:12.876Z,13.80
2018-09-13T00:23:40.907Z,13.80
2018-09-13T00:26:08.964Z,13.80
2018-09-13T00:28:37.004Z,13.70
2018-09-13T00:31:05.059Z,13.70
2018-09-13T00:33:33.136Z,13.70
2018-09-13T00:36:01.183Z,13.70
2018-09-13T00:38:29.221Z,13.80
2018-09-13T00:40:57.281Z,13.80
2018-09-13T00:43:25.778Z,13.90
2018-09-13T00:45:53.819Z,13.90
2018-09-13T00:48:21.869Z,14.00
2018-09-13T00:50:49.920Z,14.00
2018-09-13T00:53:17.959Z,14.00
2018-09-13T00:55:46.032Z,14.00
2018-09-13T00:58:14.079Z,14.00
2018-09-13T01:00:42.133Z,14.00
2018-09-13T01:03:10.171Z,14.00
2018-09-13T01:05:38.226Z,14.00
2018-09-13T01:08:06.265Z,14.00
2018-09-13T01:10:34.311Z,14.00
2018-09-13T01:13:02.362Z,13.90
2018-09-13T01:15:30.396Z,13.80
2018-09-13T01:17:58.453Z,13.80
2018-09-13T01:20:26.491Z,13.70
2018-09-13T01:22:54.536Z,13.70
2018-09-13T01:25:22.575Z,13.70
2018-09-13T01:27:50.622Z,13.60
2018-09-13T01:30:18.668Z,13.60
2018-09-13T01:32:46.787Z,13.60
2018-09-13T01:35:14.833Z,13.60
2018-09-13T01:37:42.863Z,13.60
2018-09-13T01:40:10.968Z,13.60
2018-09-13T01:42:39.023Z,13.60
2018-09-13T01:45:07.067Z,13.60
2018-09-13T01:47:35.108Z,13.50
2018-09-13T01:50:03.193Z,13.50
2018-09-13T01:52:31.211Z,13.40
2018-09-13T01:54:59.263Z,13.40
2018-09-13T01:57:27.303Z,13.40
2018-09-13T01:59:55.357Z,13.40
2018-09-13T02:02:23.396Z,13.30
2018-09-13T02:04:51.427Z,13.30
2018-09-13T02:07:19.492Z,13.30
2018-09-13T02:09:47.580Z,13.30
2018-09-13T02:12:15.638Z,13.30
2018-09-13T02:14:43.680Z,13.20
2018-09-13T02:17:11.715Z,13.30
2018-09-13T02:19:39.791Z,13.30
2018-09-13T02:22:07.835Z,13.30
2018-09-13T02:24:35.871Z,13.40
2018-09-13T02:27:03.982Z,13.40
2018-09-13T02:29:32.020Z,13.40
2018-09-13T02:32:00.139Z,13.50
2018-09-13T02:34:28.196Z,13.50
2018-09-13T02:36:56.271Z,13.50
2018-09-13T02:39:24.311Z,13.50
2018-09-13T02:41:52.359Z,13.50
2018-09-13T02:44:20.391Z,13.50
2018-09-13T02:46:48.434Z,13.40
2018-09-13T02:49:16.569Z,13.40
2018-09-13T02:51:44.542Z,13.40
2018-09-13T02:54:12.590Z,13.40
2018-09-13T02:56:40.625Z,13.50
2018-09-13T02:59:08.662Z,13.50
2018-09-13T03:01:36.704Z,13.50
2018-09-13T03:04:04.843Z,13.50
2018-09-13T03:06:32.911Z,13.40
2018-09-13T03:09:00.954Z,13.30
2018-09-13T03:11:29.002Z,13.20
2018-09-13T03:13:57.035Z,13.20
2018-09-13T03:16:25.091Z,13.10
2018-09-13T03:18:53.135Z,13.00
2018-09-13T03:21:21.184Z,13.00
2018-09-13T03:23:49.240Z,13.00
2018-09-13T03:26:17.335Z,13.00
2018-09-13T03:28:45.335Z,13.00
2018-09-13T03:31:13.387Z,12.90
2018-09-13T03:33:41.483Z,12.90
2018-09-13T03:36:09.524Z,13.00
2018-09-13T03:38:37.579Z,13.00
2018-09-13T03:41:05.695Z,13.00
2018-09-13T03:43:33.742Z,13.00
2018-09-13T03:46:01.861Z,13.00
2018-09-13T03:48:29.905Z,13.00
2018-09-13T03:50:57.943Z,13.00
2018-09-13T03:53:26.057Z,13.00
2018-09-13T03:55:54.223Z,12.90
2018-09-13T03:58:22.267Z,12.90
2018-09-13T04:00:50.339Z,13.00
2018-09-13T04:03:18.902Z,13.00
2018-09-13T04:05:46.878Z,13.00
2018-09-13T04:08:15.007Z,12.90
2018-09-13T04:10:43.081Z,12.80
2018-09-13T04:13:11.116Z,12.70
2018-09-13T04:15:39.194Z,12.60
2018-09-13T04:18:07.312Z,12.60
2018-09-13T04:20:35.359Z,12.60
2018-09-13T04:23:03.403Z,12.60
2018-09-13T04:25:31.447Z,12.50
2018-09-13T04:27:59.663Z,12.60
2018-09-13T04:30:27.705Z,12.50
2018-09-13T04:32:55.794Z,12.60
2018-09-13T04:35:23.806Z,12.70
2018-09-13T04:37:51.859Z,12.70
2018-09-13T04:40:19.899Z,12.80
2018-09-13T04:42:47.942Z,12.80
2018-09-13T04:45:16.043Z,12.80
2018-09-13T04:47:44.109Z,12.80
2018-09-13T04:50:12.156Z,12.80
2018-09-13T04:52:40.231Z,12.90
2018-09-13T04:55:08.307Z,12.90
2018-09-13T04:57:36.348Z,13.00
2018-09-13T05:00:04.433Z,13.00
2018-09-13T05:02:32.590Z,13.00
2018-09-13T05:05:00.615Z,13.00
2018-09-13T05:07:28.687Z,13.10
2018-09-13T05:09:56.736Z,13.10
2018-09-13T05:12:24.818Z,13.10
2018-09-13T05:14:52.863Z,13.10
2018-09-13T05:17:20.990Z,13.20
2018-09-13T05:19:49.051Z,13.20
2018-09-13T05:22:17.108Z,13.20
2018-09-13T05:24:45.155Z,13.20
2018-09-13T05:27:13.204Z,13.30
2018-09-13T05:29:41.235Z,13.40
2018-09-13T05:32:09.287Z,13.40
2018-09-13T05:34:37.400Z,13.40
2018-09-13T05:37:05.482Z,13.50
2018-09-13T05:39:33.545Z,13.50
2018-09-13T05:42:01.637Z,13.50
2018-09-13T05:44:29.770Z,13.50
2018-09-13T05:46:57.823Z,13.50
2018-09-13T05:49:25.930Z,13.40
2018-09-13T05:51:54.003Z,13.50
2018-09-13T05:54:22.919Z,13.50
2018-09-13T05:56:51.010Z,13.40
2018-09-13T05:59:19.047Z,13.30
2018-09-13T06:01:47.087Z,13.30
2018-09-13T06:04:15.171Z,13.30
2018-09-13T06:06:43.198Z,13.20
2018-09-13T06:09:11.244Z,13.20
2018-09-13T06:11:39.296Z,13.20
2018-09-13T06:14:07.331Z,13.10
2018-09-13T06:16:35.845Z,13.10
2018-09-13T06:19:03.882Z,13.20
2018-09-13T06:21:31.938Z,13.10
2018-09-13T06:23:59.974Z,13.10
2018-09-13T06:26:28.022Z,13.00
2018-09-13T06:28:56.074Z,13.00
2018-09-13T06:31:24.151Z,12.90
2018-09-13T06:33:52.207Z,12.90
2018-09-13T06:36:20.302Z,12.90
2018-09-13T06:38:48.312Z,12.90
2018-09-13T06:41:16.350Z,12.80
2018-09-13T06:43:44.459Z,12.80
2018-09-13T06:46:12.511Z,12.80
2018-09-13T06:48:40.638Z,12.80
2018-09-13T06:51:08.607Z,12.90
2018-09-13T06:53:36.651Z,12.90
2018-09-13T06:56:04.691Z,12.90
2018-09-13T06:58:32.746Z,13.00
2018-09-13T07:01:00.781Z,13.10
2018-09-13T07:03:28.846Z,13.10
2018-09-13T07:05:56.916Z,13.20
2018-09-13T07:08:24.967Z,13.30
2018-09-13T07:10:53.015Z,13.20
2018-09-13T07:13:21.074Z,13.30
2018-09-13T07:15:49.174Z,13.30
2018-09-13T07:18:17.231Z,13.20
2018-09-13T07:20:45.263Z,13.30
2018-09-13T07:23:13.390Z,13.30
2018-09-13T07:25:41.415Z,13.30
2018-09-13T07:28:09.461Z,13.30
2018-09-13T07:30:37.703Z,13.40
2018-09-13T07:33:05.836Z,13.40
2018-09-13T07:35:34.178Z,13.40
2018-09-13T07:38:02.222Z,13.30
2018-09-13T07:40:30.247Z,13.20
2018-09-13T07:42:58.455Z,13.20
2018-09-13T07:45:26.343Z,13.20
2018-09-13T07:47:54.407Z,13.20
2018-09-13T07:50:22.438Z,13.30
2018-09-13T07:52:50.489Z,13.40
2018-09-13T07:55:18.520Z,13.50
2018-09-13T07:57:46.627Z,13.60
2018-09-13T08:00:14.859Z,13.60
2018-09-13T08:02:42.928Z,13.60
2018-09-13T08:05:11.185Z,13.70
2018-09-13T08:07:39.156Z,13.80
2018-09-13T08:10:07.335Z,13.80
2018-09-13T08:12:35.379Z,13.80
2018-09-13T08:15:03.449Z,13.70
2018-09-13T08:17:31.653Z,13.50
2018-09-13T08:19:59.980Z,13.50
2018-09-13T08:22:28.206Z,13.50
2018-09-13T08:24:56.288Z,13.60
2018-09-13T08:27:24.343Z,13.60
2018-09-13T08:29:52.425Z,13.60
2018-09-13T08:32:20.451Z,13.50
2018-09-13T08:34:48.656Z,13.50
2018-09-13T08:37:16.705Z,13.40
2018-09-13T08:39:44.813Z,13.30
2018-09-13T08:42:12.817Z,13.20
2018-09-13T08:44:40.867Z,13.30
2018-09-13T08:47:08.904Z,13.40
2018-09-13T08:49:36.996Z,13.20
2018-09-13T08:52:05.199Z,13.20
2018-09-13T08:54:33.203Z,13.30
2018-09-13T08:57:01.247Z,13.30
2018-09-13T08:59:29.483Z,13.30
2018-09-13T09:01:57.527Z,13.20
2018-09-13T09:04:25.578Z,13.10
2018-09-13T09:06:53.636Z,13.00
2018-09-13T09:09:21.688Z,13.00
2018-09-13T09:11:49.782Z,13.00
2018-09-13T09:14:17.815Z,13.00
2018-09-13T09:16:45.855Z,13.10
2018-09-13T09:19:13.939Z,13.10
2018-09-13T09:21:42.223Z,13.20
2018-09-13T09:24:10.296Z,13.20
2018-09-13T09:26:38.315Z,13.20
2018-09-13T09:29:06.473Z,13.30
2018-09-13T09:31:34.515Z,13.30
2018-09-13T09:34:02.700Z,13.30
2018-09-13T09:36:30.734Z,13.40
2018-09-13T09:38:58.993Z,13.40
2018-09-13T09:41:27.050Z,13.50
2018-09-13T09:43:55.162Z,13.60
2018-09-13T09:46:23.207Z,13.50
2018-09-13T09:48:51.263Z,13.60
2018-09-13T09:51:19.387Z,13.70
2018-09-13T09:53:47.423Z,13.70
2018-09-13T09:56:15.572Z,13.80
2018-09-13T09:58:43.588Z,13.90
2018-09-13T10:01:17.145Z,13.90
2018-09-13T10:03:45.181Z,13.90
2018-09-13T10:06:13.264Z,13.60
2018-09-13T10:08:41.320Z,13.50
2018-09-13T10:11:09.371Z,13.50
2018-09-13T10:13:37.408Z,13.50
2018-09-13T10:16:11.071Z,13.60
2018-09-13T10:18:44.447Z,13.70
2018-09-13T10:21:17.975Z,13.80
2018-09-13T10:23:51.475Z,13.80
2018-09-13T10:26:24.946Z,13.80
2018-09-13T10:28:58.625Z,13.90
2018-09-13T10:31:32.206Z,13.80
2018-09-13T10:34:05.695Z,13.80
2018-09-13T10:36:39.159Z,13.80
2018-09-13T10:39:13.926Z,13.80
2018-09-13T10:41:47.949Z,13.90
2018-09-13T10:44:21.592Z,13.90
2018-09-13T10:46:55.099Z,13.90
2018-09-13T10:49:28.619Z,13.90
2018-09-13T10:51:58.624Z,14.00
2018-09-13T10:54:33.827Z,14.10
2018-09-13T10:57:06.113Z,14.20
2018-09-13T10:59:34.146Z,14.20
2018-09-13T11:02:02.782Z,14.30
2018-09-13T11:04:30.843Z,14.50
2018-09-13T11:06:59.411Z,14.60
2018-09-13T11:09:27.496Z,14.60
2018-09-13T11:11:55.982Z,14.50
2018-09-13T11:15:33.208Z,14.50
2018-09-13T11:18:01.931Z,14.40
2018-09-13T11:20:30.195Z,14.40
2018-09-13T11:22:58.258Z,14.50
2018-09-13T11:25:26.331Z,14.40
2018-09-13T11:27:54.924Z,14.40
2018-09-13T11:30:22.959Z,14.40
2018-09-13T11:32:51.154Z,14.40
2018-09-13T11:35:19.199Z,14.30
2018-09-13T11:37:47.237Z,14.40
2018-09-13T11:40:15.344Z,14.50
2018-09-13T11:42:43.747Z,14.70
2018-09-13T11:45:11.796Z,14.80
2018-09-13T11:47:40.827Z,14.80
2018-09-13T11:50:09.099Z,14.60
2018-09-13T11:52:37.251Z,14.50
2018-09-13T11:55:05.499Z,14.30
2018-09-13T11:57:33.707Z,14.30
2018-09-13T12:00:01.789Z,14.20
2018-09-13T12:02:30.776Z,14.10
2018-09-13T12:04:59.150Z,14.10
2018-09-13T12:07:27.259Z,14.20
2018-09-13T12:09:55.310Z,14.20
2018-09-13T12:12:23.355Z,14.10
2018-09-13T12:14:51.383Z,14.00
2018-09-13T12:17:19.507Z,14.20
2018-09-13T12:19:47.559Z,14.20
2018-09-13T12:22:15.780Z,14.10
2018-09-13T12:24:43.803Z,14.10
2018-09-13T12:27:11.877Z,14.10
2018-09-13T12:29:39.926Z,14.10
2018-09-13T12:32:07.975Z,14.20
2018-09-13T12:34:36.028Z,14.20
2018-09-13T12:37:04.217Z,14.20
2018-09-13T12:39:32.252Z,14.30
2018-09-13T12:42:00.304Z,14.30
2018-09-13T12:44:28.478Z,14.50
2018-09-13T12:46:56.659Z,14.60
2018-09-13T12:49:24.723Z,14.60
2018-09-13T12:51:52.754Z,14.80
2018-09-13T12:54:20.796Z,14.80
2018-09-13T12:56:48.916Z,14.80
2018-09-13T12:59:16.882Z,14.70
2018-09-13T13:01:44.922Z,14.50
2018-09-13T13:04:13.043Z,14.60
2018-09-13T13:06:41.117Z,14.60
2018-09-13T13:09:10.018Z,14.50
2018-09-13T13:11:38.199Z,14.50
2018-09-13T13:14:06.406Z,14.60
2018-09-13T13:16:35.157Z,14.50
2018-09-13T13:19:03.216Z,14.30
2018-09-13T13:21:31.279Z,14.20
2018-09-13T13:23:59.363Z,14.00
2018-09-13T13:26:27.573Z,14.00
2018-09-13T13:28:55.591Z,14.00
2018-09-13T13:31:23.676Z,14.10
2018-09-13T13:33:51.743Z,14.10
2018-09-13T13:36:19.942Z,14.20
2018-09-13T13:38:47.974Z,14.20
2018-09-13T13:41:16.084Z,14.30
2018-09-13T13:43:44.085Z,14.40
2018-09-13T13:46:12.136Z,14.50
2018-09-13T13:48:40.276Z,14.50
2018-09-13T13:51:08.447Z,14.40
2018-09-13T13:53:36.495Z,14.30
2018-09-13T13:56:04.656Z,14.20
2018-09-13T13:58:32.695Z,14.20
2018-09-13T14:01:00.824Z,14.20
2018-09-13T14:03:28.882Z,14.20
2018-09-13T14:05:56.928Z,14.20
2018-09-13T14:08:24.994Z,14.20
2018-09-13T14:10:53.106Z,14.10
2018-09-13T14:13:21.148Z,14.10
2018-09-13T14:15:49.487Z,14.10
2018-09-13T14:18:17.627Z,14.20
2018-09-13T14:20:45.830Z,14.20
2018-09-13T14:23:13.730Z,14.30
2018-09-13T14:25:41.758Z,14.40
2018-09-13T14:28:09.806Z,14.50
2018-09-13T14:30:37.849Z,14.50
2018-09-13T14:33:05.910Z,14.60
2018-09-13T14:35:33.972Z,14.60
2018-09-13T14:38:02.024Z,14.70
2018-09-13T14:40:30.056Z,14.50
2018-09-13T14:42:58.107Z,14.50
2018-09-13T14:45:26.139Z,14.40
2018-09-13T14:47:54.277Z,14.40
2018-09-13T14:50:22.310Z,14.40
2018-09-13T14:52:50.352Z,14.40
2018-09-13T14:55:18.392Z,14.40
2018-09-13T14:57:46.442Z,14.30
2018-09-13T15:00:14.482Z,14.20
2018-09-13T15:02:42.638Z,14.20
2018-09-13T15:05:10.700Z,14.20
2018-09-13T15:07:38.738Z,14.10
2018-09-13T15:10:06.783Z,14.10
2018-09-13T15:12:34.874Z,14.10
2018-09-13T15:15:02.948Z,14.10
2018-09-13T15:17:31.004Z,14.10
2018-09-13T15:19:59.075Z,14.00
2018-09-13T15:22:27.124Z,14.00
2018-09-13T15:24:55.524Z,14.00
2018-09-13T15:27:30.490Z,14.00
2018-09-13T15:29:58.532Z,13.90
2018-09-13T15:32:26.612Z,13.90
2018-09-13T15:34:54.654Z,13.80
2018-09-13T15:37:22.712Z,13.70
2018-09-13T15:39:50.742Z,13.70
2018-09-13T15:42:18.823Z,13.60
2018-09-13T15:44:46.867Z,13.60
2018-09-13T15:47:14.911Z,13.50
2018-09-13T15:49:42.959Z,13.50
2018-09-13T15:52:11.014Z,13.50
2018-09-13T15:54:39.055Z,13.60
2018-09-13T15:57:07.110Z,13.70
2018-09-13T15:59:35.243Z,13.80
2018-09-13T16:02:03.231Z,13.90
2018-09-13T16:04:31.282Z,13.90
2018-09-13T16:06:59.358Z,14.00
2018-09-13T16:09:27.567Z,14.00
2018-09-13T16:11:55.623Z,14.00
2018-09-13T16:14:23.667Z,14.00
2018-09-13T16:16:51.711Z,14.00
2018-09-13T16:19:19.854Z,14.00
2018-09-13T16:21:47.939Z,14.10
2018-09-13T16:24:16.014Z,14.10
2018-09-13T16:26:44.055Z,14.10
2018-09-13T16:29:12.112Z,14.10
2018-09-13T16:31:40.147Z,14.00
2018-09-13T16:34:08.188Z,14.00
2018-09-13T16:36:37.616Z,14.00
2018-09-13T16:39:23.420Z,14.00
2018-09-13T16:41:57.047Z,14.00
2018-09-13T16:44:30.706Z,14.00
2018-09-13T16:47:06.113Z,13.90
2018-09-13T16:49:35.431Z,13.90
2018-09-13T16:52:03.468Z,13.90
2018-09-13T16:54:31.656Z,13.90
2018-09-13T16:56:59.703Z,13.80
2018-09-13T16:59:27.751Z,13.80
2018-09-13T17:01:55.832Z,13.80
2018-09-13T17:04:23.931Z,13.90
2018-09-13T17:06:52.122Z,13.90
2018-09-13T17:09:20.167Z,13.90
2018-09-13T17:11:48.555Z,13.90
2018-09-13T17:14:16.603Z,14.00
2018-09-13T17:16:44.642Z,14.00
2018-09-13T17:19:12.718Z,14.00
2018-09-13T17:21:40.835Z,14.00
2018-09-13T17:24:08.870Z,13.90
2018-09-13T17:26:36.910Z,14.00
2018-09-13T17:29:04.975Z,13.90
2018-09-13T17:31:33.012Z,13.90
2018-09-13T17:34:01.108Z,13.90
2018-09-13T17:36:29.466Z,13.80
2018-09-13T17:38:57.574Z,13.80
2018-09-13T17:41:25.710Z,13.80
2018-09-13T17:43:53.764Z,13.80
2018-09-13T17:46:21.851Z,13.80
2018-09-13T17:48:49.901Z,13.80
2018-09-13T17:51:17.947Z,13.80
2018-09-13T17:53:45.995Z,13.80
2018-09-13T17:56:14.147Z,13.70
2018-09-13T17:58:42.195Z,13.70
2018-09-13T18:01:10.227Z,13.70
2018-09-13T18:03:38.314Z,13.70
2018-09-13T18:06:06.319Z,13.70
2018-09-13T18:08:34.375Z,13.70
2018-09-13T18:11:02.473Z,13.70
2018-09-13T18:13:30.524Z,13.70
2018-09-13T18:15:58.587Z,13.70
2018-09-13T18:18:26.648Z,13.70
2018-09-13T18:20:54.695Z,13.70
2018-09-13T18:23:22.780Z,13.70
2018-09-13T18:25:50.904Z,13.70
2018-09-13T18:28:18.956Z,13.70
2018-09-13T18:30:47.027Z,13.70
2018-09-13T18:33:15.142Z,13.70
2018-09-13T18:35:43.243Z,13.70
2018-09-13T18:38:11.335Z,13.70
2018-09-13T18:40:39.398Z,13.70
2018-09-13T18:43:07.434Z,13.70
2018-09-13T18:45:35.499Z,13.70
2018-09-13T18:48:03.549Z,13.70
2018-09-13T18:50:31.597Z,13.70
2018-09-13T18:52:59.682Z,13.70
2018-09-13T18:55:27.723Z,13.70
2018-09-13T18:57:55.764Z,13.70
2018-09-13T19:00:23.811Z,13.70
2018-09-13T19:02:51.855Z,13.70
2018-09-13T19:05:19.934Z,13.70
2018-09-13T19:07:47.959Z,13.70
2018-09-13T19:10:16.011Z,13.60
2018-09-13T19:12:44.067Z,13.70
2018-09-13T19:15:12.195Z,13.70
2018-09-13T19:17:40.363Z,13.70
2018-09-13T19:20:08.409Z,13.70
2018-09-13T19:22:36.449Z,13.70
2018-09-13T19:25:04.503Z,13.70
2018-09-13T19:27:32.547Z,13.70
2018-09-13T19:30:00.619Z,13.70
2018-09-13T19:32:28.656Z,13.70
2018-09-13T19:34:56.694Z,13.70
2018-09-13T19:37:24.735Z,13.70
2018-09-13T19:39:52.798Z,13.70
2018-09-13T19:42:20.871Z,13.70
2018-09-13T19:44:48.936Z,13.70
2018-09-13T19:47:17.003Z,13.70
2018-09-13T19:49:45.095Z,13.70
2018-09-13T19:52:13.144Z,13.70
2018-09-13T19:54:41.187Z,13.70
2018-09-13T19:57:09.236Z,13.70
2018-09-13T19:59:37.279Z,13.60
2018-09-13T20:02:05.432Z,13.60
2018-09-13T20:04:33.510Z,13.60
2018-09-13T20:07:01.560Z,13.70
2018-09-13T20:09:29.621Z,13.70
2018-09-13T20:11:57.681Z,13.70
2018-09-13T20:14:25.742Z,13.70
2018-09-13T20:16:53.774Z,13.70
2018-09-13T20:19:21.819Z,13.60
2018-09-13T20:21:49.860Z,13.60
2018-09-13T20:24:17.891Z,13.60
2018-09-13T20:26:46.155Z,13.60
2018-09-13T20:29:14.199Z,13.60
2018-09-13T20:31:42.234Z,13.60
2018-09-13T20:34:10.271Z,13.60
2018-09-13T20:36:38.433Z,13.60
2018-09-13T20:39:08.702Z,13.60
2018-09-13T20:41:36.827Z,13.60
2018-09-13T20:44:05.199Z,13.60
2018-09-13T20:46:33.255Z,13.60
2018-09-13T20:49:01.294Z,13.60
2018-09-13T20:51:29.335Z,13.60
2018-09-13T20:53:57.380Z,13.60
2018-09-13T20:56:25.434Z,13.60
2018-09-13T20:58:53.518Z,13.60
2018-09-13T21:01:21.564Z,13.60
2018-09-13T21:03:49.664Z,13.60
2018-09-13T21:06:17.700Z,13.60
2018-09-13T21:08:45.756Z,13.60
2018-09-13T21:11:13.794Z,13.60
2018-09-13T21:13:41.832Z,13.70
2018-09-13T21:16:09.871Z,13.70
2018-09-13T21:18:37.979Z,13.60
2018-09-13T21:21:06.038Z,13.60
2018-09-13T21:23:34.070Z,13.60
2018-09-13T21:26:02.199Z,13.60
2018-09-13T21:28:30.234Z,13.60
2018-09-13T21:30:58.272Z,13.60
2018-09-13T21:33:26.316Z,13.70
2018-09-13T21:35:54.359Z,13.70
2018-09-13T21:38:22.455Z,13.70
2018-09-13T21:40:50.627Z,13.70
2018-09-13T21:43:18.730Z,13.60
2018-09-13T21:45:46.755Z,13.60
2018-09-13T21:48:14.790Z,13.60
2018-09-13T21:50:42.823Z,13.60
2018-09-13T21:53:10.856Z,13.60
2018-09-13T21:55:38.931Z,13.60
2018-09-13T21:58:06.963Z,13.60
2018-09-13T22:00:35.084Z,13.60
2018-09-13T22:03:03.154Z,13.60
2018-09-13T22:05:31.203Z,13.60
2018-09-13T22:07:59.235Z,13.60
2018-09-13T22:10:27.375Z,13.60
2018-09-13T22:12:55.416Z,13.50
2018-09-13T22:15:23.479Z,13.60
2018-09-13T22:17:51.515Z,13.60
2018-09-13T22:20:19.568Z,13.50
2018-09-13T22:22:47.667Z,13.60
2018-09-13T22:25:15.722Z,13.60
2018-09-13T22:27:43.756Z,13.60
2018-09-13T22:30:11.791Z,13.60
2018-09-13T22:32:39.894Z,13.60
2018-09-13T22:35:08.072Z,13.60
2018-09-13T22:37:36.764Z,13.60
2018-09-13T22:40:05.090Z,13.60
2018-09-13T22:42:33.312Z,13.60
2018-09-13T22:45:02.301Z,13.60
2018-09-13T22:47:31.091Z,13.60
2018-09-13T22:49:59.155Z,13.60
2018-09-13T22:52:27.636Z,13.60
2018-09-13T22:54:55.667Z,13.60
2018-09-13T22:57:24.126Z,13.60
2018-09-13T22:59:52.464Z,13.60
2018-09-13T23:02:20.513Z,13.60
2018-09-13T23:04:48.540Z,13.60
2018-09-13T23:07:16.680Z,13.60
2018-09-13T23:09:44.727Z,13.60
2018-09-13T23:12:12.780Z,13.60
2018-09-13T23:14:40.887Z,13.60
2018-09-13T23:17:08.925Z,13.60
2018-09-13T23:19:37.035Z,13.60
2018-09-13T23:22:06.246Z,13.60
2018-09-13T23:24:34.302Z,13.60
2018-09-13T23:27:02.473Z,13.60
2018-09-13T23:29:30.510Z,13.60
2018-09-13T23:31:58.559Z,13.60
2018-09-13T23:34:26.599Z,13.60
2018-09-13T23:36:54.650Z,13.60
2018-09-13T23:39:22.876Z,13.60
2018-09-13T23:41:50.806Z,13.60
2018-09-13T23:44:18.843Z,13.60
2018-09-13T23:46:46.884Z,13.60
2018-09-13T23:49:15.103Z,13.60
2018-09-13T23:51:43.146Z,13.60
2018-09-13T23:54:11.203Z,13.60
2018-09-13T23:56:39.332Z,13.60
2018-09-13T23:59:07.375Z,13.60
